Time;durP1;ratioP1;P1;durP2;ratioP2;P2;SDS_P1;SDS_P2;PMS_P1;PMS_P2;Temp;Humidity;BMP_temperature;BMP_pressure;BME280_temperature;BME280_humidity;BME280_pressure;Samples;Min_cycle;Max_cycle;Signal;HPM_P1;HPM_P2
2023/03/13 00:01:55;;;;;;;32.00;6.03;;;10.30;99.90;;;;;;4958458;28;92445;-76
2023/03/13 00:04:23;;;;;;;28.85;6.05;;;10.30;99.90;;;;;;4974400;28;93180;-76
2023/03/13 00:06:50;;;;;;;24.40;5.88;;;10.30;99.90;;;;;;4976309;28;93547;-76
2023/03/13 00:09:17;;;;;;;25.88;5.78;;;10.30;99.90;;;;;;4990902;28;92518;-76
2023/03/13 00:11:45;;;;;;;24.80;5.80;;;10.30;99.90;;;;;;4975668;28;102008;-76
2023/03/13 00:14:12;;;;;;;24.77;5.50;;;10.20;99.90;;;;;;4975688;28;92364;-76
2023/03/13 00:16:39;;;;;;;21.88;5.78;;;10.20;99.90;;;;;;4974985;28;93537;-76
2023/03/13 00:19:07;;;;;;;29.33;6.15;;;10.20;99.90;;;;;;4974707;28;92576;-76
2023/03/13 00:21:36;;;;;;;25.52;6.43;;;10.20;99.90;;;;;;4975716;28;93042;-76
2023/03/13 00:24:04;;;;;;;25.17;5.85;;;10.20;99.90;;;;;;4973111;28;98203;-76
2023/03/13 00:26:31;;;;;;;28.17;6.25;;;10.20;99.90;;;;;;4975696;28;94286;-76
2023/03/13 00:28:58;;;;;;;25.73;5.47;;;10.10;99.90;;;;;;4974502;28;92547;-76
2023/03/13 00:31:28;;;;;;;22.77;5.95;;;10.10;99.90;;;;;;4974280;28;92461;-76
2023/03/13 00:33:58;;;;;;;27.17;5.60;;;10.10;99.90;;;;;;4990853;28;93319;-76
2023/03/13 00:36:31;;;;;;;29.13;5.95;;;10.20;99.90;;;;;;4974089;28;92978;-76
2023/03/13 00:39:00;;;;;;;22.50;6.10;;;10.10;99.90;;;;;;4976105;28;92906;-76
2023/03/13 00:41:30;;;;;;;32.60;5.78;;;10.10;99.90;;;;;;4974103;28;91914;-76
2023/03/13 00:43:58;;;;;;;26.17;5.70;;;10.10;99.90;;;;;;4974167;28;95969;-76
2023/03/13 00:46:27;;;;;;;30.02;6.63;;;10.10;99.90;;;;;;4990248;28;97233;-76
2023/03/13 00:48:55;;;;;;;26.17;5.30;;;10.10;99.90;;;;;;4974517;28;94892;-76
2023/03/13 00:51:23;;;;;;;22.42;5.43;;;10.10;99.90;;;;;;4957501;28;92540;-76
2023/03/13 00:53:50;;;;;;;24.85;6.03;;;10.10;99.90;;;;;;4974060;28;95766;-76
2023/03/13 00:56:19;;;;;;;31.27;6.35;;;10.10;99.90;;;;;;4977150;28;95571;-75
2023/03/13 00:58:48;;;;;;;27.02;6.13;;;10.10;99.90;;;;;;4977549;28;93174;-76
2023/03/13 01:01:16;;;;;;;22.88;4.90;;;10.00;99.90;;;;;;4977482;28;92551;-76
2023/03/13 01:03:46;;;;;;;24.42;5.65;;;10.10;99.90;;;;;;4978219;28;93390;-76
2023/03/13 01:06:17;;;;;;;23.60;6.05;;;10.10;99.90;;;;;;4977773;28;95140;-76
2023/03/13 01:08:45;;;;;;;26.52;5.95;;;10.10;99.90;;;;;;4979041;28;92550;-76
2023/03/13 01:11:15;;;;;;;23.67;5.43;;;10.00;99.90;;;;;;4977390;28;92531;-76
2023/03/13 01:13:42;;;;;;;19.13;5.07;;;10.00;99.90;;;;;;4992277;28;98199;-76
2023/03/13 01:16:14;;;;;;;23.02;5.18;;;10.00;99.90;;;;;;4977483;28;95434;-76
2023/03/13 01:18:47;;;;;;;23.08;5.18;;;10.00;99.90;;;;;;4978755;28;92391;-76
2023/03/13 01:21:18;;;;;;;23.67;5.73;;;10.10;99.90;;;;;;4977509;28;92510;-76
2023/03/13 01:23:45;;;;;;;23.35;5.00;;;10.00;99.90;;;;;;4977171;28;93218;-76
2023/03/13 01:26:14;;;;;;;20.85;5.60;;;10.10;99.90;;;;;;4977246;28;94158;-76
2023/03/13 01:28:40;;;;;;;24.42;5.15;;;10.10;99.90;;;;;;4978188;28;92641;-76
2023/03/13 01:31:23;;;;;;;23.80;5.30;;;10.00;99.90;;;;;;4977283;28;91824;-76
2023/03/13 01:33:53;;;;;;;17.17;4.60;;;10.10;99.90;;;;;;4976603;28;95942;-76
2023/03/13 01:36:20;;;;;;;23.13;4.55;;;10.10;99.90;;;;;;4993604;28;93168;-76
2023/03/13 01:38:52;;;;;;;21.55;4.63;;;10.00;99.90;;;;;;4976052;28;94895;-76
2023/03/13 01:41:20;;;;;;;26.02;6.32;;;10.10;99.90;;;;;;4977042;28;92500;-76
2023/03/13 01:43:47;;;;;;;28.02;6.18;;;10.10;99.90;;;;;;4976637;28;95235;-76
2023/03/13 01:46:24;;;;;;;21.75;5.38;;;10.10;99.90;;;;;;4976952;28;95052;-76
2023/03/13 01:49:18;;;;;;;16.98;4.90;;;10.10;99.90;;;;;;4979279;28;92585;-75
2023/03/13 01:52:05;;;;;;;20.13;5.63;;;10.00;99.90;;;;;;4977832;28;92671;-76
2023/03/13 01:54:38;;;;;;;16.58;4.78;;;10.10;99.90;;;;;;4976033;28;95932;-76
2023/03/13 01:57:07;;;;;;;25.65;5.20;;;10.10;99.90;;;;;;4977166;28;95653;-76
2023/03/13 01:59:44;;;;;;;17.08;5.28;;;10.10;99.90;;;;;;4976592;28;93135;-76
2023/03/13 02:02:13;;;;;;;17.98;4.72;;;10.10;99.90;;;;;;4976228;28;92522;-76
2023/03/13 02:04:47;;;;;;;20.33;4.97;;;10.10;99.90;;;;;;4976535;28;95545;-76
2023/03/13 02:07:18;;;;;;;19.50;4.95;;;10.10;99.90;;;;;;4993101;28;95520;-75
2023/03/13 02:09:50;;;;;;;20.35;5.28;;;10.20;99.90;;;;;;4978016;28;92490;-76
2023/03/13 02:12:36;;;;;;;21.00;5.13;;;10.20;99.90;;;;;;4976178;28;92407;-76
2023/03/13 02:15:12;;;;;;;18.40;4.43;;;10.20;99.90;;;;;;4976267;28;95952;-76
2023/03/13 02:17:40;;;;;;;17.23;4.50;;;10.20;99.90;;;;;;4975965;28;95296;-76
2023/03/13 02:20:08;;;;;;;20.83;5.68;;;10.20;99.90;;;;;;4977681;28;92468;-76
2023/03/13 02:22:45;;;;;;;19.48;4.75;;;10.20;99.90;;;;;;4976681;28;91750;-76
2023/03/13 02:25:22;;;;;;;20.02;4.65;;;10.20;99.90;;;;;;4976154;28;94691;-76
2023/03/13 02:27:56;;;;;;;22.50;5.50;;;10.20;99.90;;;;;;4975739;28;95785;-76
2023/03/13 02:30:24;;;;;;;19.47;4.53;;;10.20;99.90;;;;;;4974938;28;95088;-76
2023/03/13 02:32:51;;;;;;;22.65;5.05;;;10.10;99.90;;;;;;4943686;28;92470;-76
2023/03/13 02:35:20;;;;;;;20.17;5.25;;;10.20;99.90;;;;;;4977197;28;93182;-76
2023/03/13 02:37:52;;;;;;;17.77;4.40;;;10.20;99.90;;;;;;4975601;28;95513;-76
2023/03/13 02:40:42;;;;;;;16.92;5.03;;;10.20;99.90;;;;;;4975888;28;92441;-76
2023/03/13 02:43:37;;;;;;;20.48;6.10;;;10.20;99.90;;;;;;4992683;28;92550;-76
2023/03/13 02:46:13;;;;;;;20.20;4.80;;;10.20;99.90;;;;;;4977267;28;93257;-76
2023/03/13 02:48:47;;;;;;;16.50;4.75;;;10.10;99.90;;;;;;4975692;28;95368;-76
2023/03/13 02:51:22;;;;;;;15.55;4.30;;;10.10;99.90;;;;;;4992406;28;92437;-76
2023/03/13 02:53:51;;;;;;;15.50;4.97;;;10.10;99.90;;;;;;4975561;28;92429;-76
2023/03/13 02:56:21;;;;;;;13.77;4.75;;;10.10;99.90;;;;;;4958046;28;98549;-76
2023/03/13 02:58:48;;;;;;;13.55;3.97;;;10.20;99.90;;;;;;4976772;28;95451;-76
2023/03/13 03:01:20;;;;;;;8.98;3.67;;;10.20;99.90;;;;;;4976348;28;92444;-76
2023/03/13 03:03:47;;;;;;;11.82;4.35;;;10.10;99.90;;;;;;4975286;28;92524;-76
2023/03/13 03:06:14;;;;;;;9.00;4.07;;;10.20;99.90;;;;;;4975308;28;95777;-76
2023/03/13 03:08:42;;;;;;;8.82;3.63;;;10.20;99.90;;;;;;4975200;28;95354;-76
2023/03/13 03:11:11;;;;;;;10.90;4.00;;;10.20;99.90;;;;;;4975588;28;92514;-76
2023/03/13 03:13:40;;;;;;;10.18;3.78;;;10.30;99.90;;;;;;4975771;28;92398;-76
2023/03/13 03:16:22;;;;;;;5.82;3.42;;;10.30;99.90;;;;;;4959016;28;95862;-76
2023/03/13 03:18:49;;;;;;;10.40;3.50;;;10.30;99.90;;;;;;4974542;28;95295;-76
2023/03/13 03:21:16;;;;;;;8.00;3.55;;;10.30;99.90;;;;;;4974245;28;94949;-76
2023/03/13 03:23:43;;;;;;;5.05;2.85;;;10.30;99.90;;;;;;4975359;28;92526;-76
2023/03/13 03:26:10;;;;;;;8.95;3.97;;;10.30;99.90;;;;;;4976495;28;93282;-76
2023/03/13 03:28:38;;;;;;;7.32;3.17;;;10.40;99.90;;;;;;4959099;28;95725;-76
2023/03/13 03:31:12;;;;;;;9.25;3.50;;;10.30;99.90;;;;;;4959515;28;92616;-76
2023/03/13 03:33:57;;;;;;;5.80;2.90;;;10.40;99.90;;;;;;4976790;28;92399;-76
2023/03/13 03:36:33;;;;;;;8.90;2.80;;;10.40;99.90;;;;;;4974216;28;96650;-76
2023/03/13 03:39:00;;;;;;;4.50;2.38;;;10.40;99.90;;;;;;4975530;28;95042;-76
2023/03/13 03:41:29;;;;;;;5.72;3.03;;;10.40;99.90;;;;;;4976508;28;92474;-76
2023/03/13 03:43:57;;;;;;;5.55;3.13;;;10.40;99.90;;;;;;4974995;28;92745;-76
2023/03/13 03:46:29;;;;;;;8.38;3.05;;;10.50;99.90;;;;;;4973531;28;98256;-76
2023/03/13 03:48:56;;;;;;;7.13;3.13;;;10.50;99.90;;;;;;4974654;28;97661;-76
2023/03/13 03:51:23;;;;;;;6.32;3.50;;;10.50;99.90;;;;;;4958556;28;92589;-76
2023/03/13 03:53:50;;;;;;;5.38;3.05;;;10.50;99.90;;;;;;4974736;28;92492;-76
2023/03/13 03:56:17;;;;;;;6.90;3.10;;;10.50;99.90;;;;;;4974839;28;95514;-76
2023/03/13 03:58:49;;;;;;;6.40;3.17;;;10.50;99.90;;;;;;4958954;28;95487;-76
2023/03/13 04:01:35;;;;;;;6.80;3.88;;;10.50;99.90;;;;;;4977515;28;93087;-77
2023/03/13 04:04:03;;;;;;;7.05;3.42;;;10.60;99.90;;;;;;4974749;28;91818;-77
2023/03/13 04:06:30;;;;;;;6.60;3.63;;;10.60;99.90;;;;;;4974621;28;95297;-77
2023/03/13 04:08:58;;;;;;;9.35;3.63;;;10.60;99.90;;;;;;4974230;28;95161;-77
2023/03/13 04:11:27;;;;;;;7.35;3.50;;;10.60;99.90;;;;;;4973539;28;94951;-77
2023/03/13 04:13:55;;;;;;;5.97;3.40;;;10.60;99.90;;;;;;4974561;28;92478;-77
2023/03/13 04:16:22;;;;;;;7.18;3.58;;;10.70;99.90;;;;;;4974359;28;95681;-77
2023/03/13 04:18:50;;;;;;;5.95;3.28;;;10.70;99.90;;;;;;4974538;28;95371;-77
2023/03/13 04:21:18;;;;;;;5.07;3.60;;;10.60;99.90;;;;;;4974936;28;92608;-77
2023/03/13 04:23:50;;;;;;;6.18;3.65;;;10.60;99.90;;;;;;4975011;28;93396;-77
2023/03/13 04:26:17;;;;;;;5.55;3.75;;;10.60;99.90;;;;;;4958071;28;95228;-77
2023/03/13 04:28:45;;;;;;;6.38;3.28;;;10.60;99.90;;;;;;4974218;28;95481;-77
2023/03/13 04:31:16;;;;;;;3.78;3.17;;;10.70;99.90;;;;;;4974939;28;92634;-77
2023/03/13 04:34:00;;;;;;;7.10;3.30;;;10.70;99.90;;;;;;4976696;28;92529;-75
2023/03/13 04:36:59;;;;;;;4.97;3.25;;;10.70;99.90;;;;;;4956122;28;95539;-74
2023/03/13 04:39:50;;;;;;;5.78;3.60;;;10.70;99.90;;;;;;4974205;28;97578;-74
2023/03/13 04:42:32;;;;;;;4.85;3.28;;;10.80;99.90;;;;;;4973272;28;92398;-74
2023/03/13 04:45:18;;;;;;;3.78;3.15;;;10.80;99.90;;;;;;4975686;28;92458;-74
2023/03/13 04:47:57;;;;;;;3.60;3.00;;;10.90;99.90;;;;;;4971992;28;92972;-74
2023/03/13 04:50:29;;;;;;;3.85;3.30;;;10.90;99.90;;;;;;4973683;28;92754;-74
2023/03/13 04:53:15;;;;;;;5.00;3.40;;;10.90;99.90;;;;;;4974826;28;92473;-74
2023/03/13 04:56:03;;;;;;;5.75;3.88;;;11.00;99.90;;;;;;4961062;28;92578;-74
2023/03/13 04:58:50;;;;;;;4.55;3.58;;;11.00;99.90;;;;;;4974015;28;94087;-75
2023/03/13 05:01:32;;;;;;;3.53;3.22;;;11.10;99.90;;;;;;4973841;28;95188;-75
2023/03/13 05:03:59;;;;;;;5.13;3.92;;;11.10;99.90;;;;;;4972699;28;94883;-74
2023/03/13 05:06:52;;;;;;;4.28;3.88;;;11.20;99.90;;;;;;4973981;28;92704;-74
2023/03/13 05:09:37;;;;;;;4.80;3.60;;;11.20;99.90;;;;;;4973263;28;92730;-75
2023/03/13 05:12:28;;;;;;;4.57;4.03;;;11.30;99.90;;;;;;4973718;28;92483;-75
2023/03/13 05:15:18;;;;;;;6.97;4.63;;;11.30;99.90;;;;;;4968967;28;92425;-75
2023/03/13 05:17:54;;;;;;;5.30;4.38;;;11.30;99.90;;;;;;4975381;28;92465;-75
2023/03/13 05:20:37;;;;;;;7.22;4.68;;;11.40;99.90;;;;;;4974196;28;93295;-75
2023/03/13 05:23:21;;;;;;;6.47;4.95;;;11.40;99.90;;;;;;4975498;28;91848;-75
2023/03/13 05:25:48;;;;;;;5.38;4.88;;;11.40;99.90;;;;;;4975509;28;93114;-75
2023/03/13 05:28:23;;;;;;;5.45;4.43;;;11.40;99.90;;;;;;4973909;28;92548;-75
2023/03/13 05:31:07;;;;;;;5.30;4.80;;;11.50;99.90;;;;;;4974578;28;97920;-75
2023/03/13 05:33:53;;;;;;;5.53;4.38;;;11.50;99.90;;;;;;4976139;28;97894;-75
2023/03/13 05:36:23;;;;;;;5.18;4.50;;;11.50;99.90;;;;;;4973885;28;92486;-75
2023/03/13 05:39:17;;;;;;;5.23;4.37;;;11.60;99.90;;;;;;4977410;28;93064;-75
2023/03/13 05:41:47;;;;;;;6.35;5.28;;;11.60;99.90;;;;;;4975677;28;92474;-75
2023/03/13 05:44:37;;;;;;;6.63;4.93;;;11.60;99.90;;;;;;4948973;28;92811;-75
2023/03/13 05:47:18;;;;;;;7.68;5.00;;;11.70;99.90;;;;;;4962318;28;92514;-75
2023/03/13 05:49:53;;;;;;;6.28;5.45;;;11.70;99.90;;;;;;4977142;28;91826;-75
2023/03/13 05:52:32;;;;;;;6.43;5.60;;;11.70;99.90;;;;;;4976553;28;95570;-75
2023/03/13 05:55:12;;;;;;;7.95;5.15;;;11.80;99.90;;;;;;4976490;28;95445;-75
2023/03/13 05:57:53;;;;;;;7.57;5.32;;;11.80;99.90;;;;;;4977735;28;95042;-75
2023/03/13 06:00:38;;;;;;;7.13;5.47;;;11.80;99.90;;;;;;4977144;28;92941;-75
2023/03/13 06:03:25;;;;;;;7.70;4.88;;;11.80;99.90;;;;;;4989726;28;93222;-75
2023/03/13 06:05:58;;;;;;;7.68;5.05;;;11.90;99.90;;;;;;4976700;28;95362;-75
2023/03/13 06:08:33;;;;;;;5.43;4.88;;;12.00;99.90;;;;;;4976608;28;92452;-75
2023/03/13 06:11:02;;;;;;;5.70;5.18;;;12.00;99.90;;;;;;4976071;28;92766;-75
2023/03/13 06:13:29;;;;;;;8.43;5.30;;;12.00;99.90;;;;;;4976218;28;95432;-75
2023/03/13 06:16:01;;;;;;;6.53;4.68;;;12.10;99.90;;;;;;4976358;28;94516;-75
2023/03/13 06:18:54;;;;;;;5.82;5.25;;;12.10;99.90;;;;;;4953799;28;93224;-75
2023/03/13 06:21:21;;;;;;;7.57;5.60;;;12.10;99.90;;;;;;4959472;28;92590;-75
2023/03/13 06:23:48;;;;;;;8.43;6.22;;;12.20;99.90;;;;;;4975012;28;95628;-75
2023/03/13 06:26:15;;;;;;;7.63;5.40;;;12.20;99.90;;;;;;4975708;28;103255;-75
2023/03/13 06:28:43;;;;;;;6.05;5.47;;;12.30;99.90;;;;;;4977555;28;92392;-75
2023/03/13 06:31:10;;;;;;;8.02;5.10;;;12.40;99.90;;;;;;4976176;28;92418;-75
2023/03/13 06:33:37;;;;;;;5.70;5.03;;;12.40;99.90;;;;;;4975834;28;95791;-75
2023/03/13 06:36:04;;;;;;;9.27;5.30;;;12.50;99.90;;;;;;4976887;28;92966;-75
2023/03/13 06:38:31;;;;;;;7.43;5.15;;;12.50;99.90;;;;;;4975777;28;92516;-75
2023/03/13 06:40:58;;;;;;;11.15;5.75;;;12.50;99.90;;;;;;4977469;28;91633;-75
2023/03/13 06:43:25;;;;;;;7.38;5.00;;;12.60;99.90;;;;;;4975793;28;93313;-75
2023/03/13 06:45:52;;;;;;;6.88;5.47;;;12.50;99.90;;;;;;4977165;28;93083;-75
2023/03/13 06:48:21;;;;;;;7.53;5.25;;;12.60;99.90;;;;;;4974526;28;94909;-75
2023/03/13 06:50:48;;;;;;;10.70;5.25;;;12.60;99.90;;;;;;4977122;28;92740;-75
2023/03/13 06:53:18;;;;;;;9.18;5.70;;;12.70;99.90;;;;;;4974616;28;93260;-75
2023/03/13 06:55:51;;;;;;;11.25;5.05;;;12.70;99.90;;;;;;4975454;28;94050;-75
2023/03/13 06:58:34;;;;;;;9.07;5.03;;;12.80;99.90;;;;;;4975596;28;92723;-75
2023/03/13 07:01:12;;;;;;;7.90;5.30;;;12.80;99.90;;;;;;4975538;28;92513;-75
2023/03/13 07:03:42;;;;;;;8.90;5.20;;;12.90;99.90;;;;;;4976312;28;93018;-75
2023/03/13 07:06:11;;;;;;;7.78;5.13;;;12.90;99.90;;;;;;4992501;28;92969;-75
2023/03/13 07:08:38;;;;;;;9.85;5.53;;;12.90;99.90;;;;;;4976520;28;97012;-75
2023/03/13 07:11:08;;;;;;;9.48;4.65;;;13.00;99.90;;;;;;4992260;28;92646;-75
2023/03/13 07:13:35;;;;;;;9.05;4.72;;;13.00;99.90;;;;;;4990182;28;95744;-75
2023/03/13 07:16:08;;;;;;;9.63;4.30;;;13.00;99.90;;;;;;4975248;28;96509;-75
2023/03/13 07:18:36;;;;;;;6.80;4.13;;;13.10;99.90;;;;;;4975676;28;92471;-75
2023/03/13 07:21:04;;;;;;;8.80;4.20;;;13.20;99.90;;;;;;4975339;28;92581;-75
2023/03/13 07:23:33;;;;;;;10.10;4.30;;;13.20;99.90;;;;;;4976304;28;93191;-75
2023/03/13 07:26:02;;;;;;;11.75;4.50;;;13.30;99.90;;;;;;4976615;28;92892;-75
2023/03/13 07:28:30;;;;;;;9.95;4.72;;;13.30;99.90;;;;;;4976245;28;92462;-75
2023/03/13 07:31:24;;;;;;;9.30;4.60;;;13.30;99.90;;;;;;4976706;28;96088;-76
2023/03/13 07:33:55;;;;;;;7.35;4.13;;;13.40;99.90;;;;;;4971821;28;95794;-75
2023/03/13 07:36:22;;;;;;;7.22;4.00;;;13.30;99.90;;;;;;4974941;28;92964;-75
2023/03/13 07:38:51;;;;;;;8.65;4.30;;;13.30;99.90;;;;;;4975533;28;94923;-75
2023/03/13 07:41:19;;;;;;;7.07;4.20;;;13.20;99.90;;;;;;4974688;28;92590;-75
2023/03/13 07:43:46;;;;;;;7.70;4.25;;;13.30;99.90;;;;;;4974921;28;97675;-75
2023/03/13 07:46:18;;;;;;;9.25;3.55;;;13.40;99.90;;;;;;4974873;28;93280;-75
2023/03/13 07:48:47;;;;;;;10.25;4.07;;;13.50;99.90;;;;;;4976693;28;93123;-75
2023/03/13 07:51:23;;;;;;;8.52;3.63;;;13.50;99.90;;;;;;4976131;28;92548;-75
2023/03/13 07:54:06;;;;;;;7.25;3.80;;;13.60;99.90;;;;;;4974926;28;96205;-76
2023/03/13 07:56:33;;;;;;;9.50;3.80;;;13.60;99.90;;;;;;4959051;28;92996;-75
2023/03/13 07:59:00;;;;;;;10.77;3.95;;;13.70;99.90;;;;;;4976365;28;93045;-76
2023/03/13 08:01:27;;;;;;;8.85;3.20;;;13.70;99.90;;;;;;4974538;28;94217;-76
2023/03/13 08:03:57;;;;;;;7.72;3.30;;;13.80;99.90;;;;;;4972850;28;95562;-75
2023/03/13 08:06:25;;;;;;;8.07;3.17;;;13.90;99.90;;;;;;4974783;28;95488;-75
2023/03/13 08:08:56;;;;;;;6.50;3.50;;;13.90;99.90;;;;;;4975879;28;92471;-73
2023/03/13 08:11:24;;;;;;;7.47;3.20;;;13.90;99.90;;;;;;4974747;28;92432;-73
2023/03/13 08:13:52;;;;;;;8.55;3.28;;;13.90;99.90;;;;;;4974296;28;95520;-73
2023/03/13 08:16:21;;;;;;;5.45;3.20;;;14.00;99.90;;;;;;4974354;28;95866;-73
2023/03/13 08:18:51;;;;;;;5.80;3.20;;;14.10;99.90;;;;;;4974538;28;92522;-73
2023/03/13 08:21:27;;;;;;;8.65;3.00;;;14.00;99.90;;;;;;4991464;28;91825;-73
2023/03/13 08:23:56;;;;;;;7.07;3.22;;;14.10;99.90;;;;;;4974620;28;95730;-73
2023/03/13 08:26:26;;;;;;;5.30;3.28;;;14.00;99.90;;;;;;4973975;28;95639;-73
2023/03/13 08:28:59;;;;;;;5.53;3.30;;;13.90;99.90;;;;;;4973115;28;94994;-73
2023/03/13 08:31:29;;;;;;;4.00;3.13;;;13.90;99.90;;;;;;4975609;28;92475;-73
2023/03/13 08:33:57;;;;;;;4.63;3.15;;;13.70;99.90;;;;;;4974142;28;95841;-73
2023/03/13 08:36:30;;;;;;;3.97;2.58;;;13.70;99.90;;;;;;4973148;28;109514;-73
2023/03/13 08:38:59;;;;;;;4.10;2.27;;;13.60;99.90;;;;;;4975792;28;92663;-73
2023/03/13 08:41:29;;;;;;;3.88;2.80;;;13.60;99.90;;;;;;4975439;28;92487;-73
2023/03/13 08:43:56;;;;;;;3.85;2.63;;;13.70;99.90;;;;;;4975376;28;93283;-73
2023/03/13 08:50:31;;;;;;;4.85;2.78;;;13.90;99.90;;;;;;4898055;28;92971;-73
2023/03/13 08:52:58;;;;;;;4.45;2.95;;;13.90;99.90;;;;;;4898386;28;92684;-73
2023/03/13 08:55:25;;;;;;;4.95;2.63;;;14.10;99.90;;;;;;4913255;28;96242;-73
2023/03/13 08:58:11;;;;;;;3.60;2.47;;;14.20;99.90;;;;;;4914576;28;95427;-73
2023/03/13 09:00:51;;;;;;;4.45;2.63;;;14.30;99.90;;;;;;4894222;28;93387;-73
2023/03/13 09:03:18;;;;;;;3.95;2.90;;;14.30;99.90;;;;;;4882181;28;92531;-73
2023/03/13 09:05:46;;;;;;;5.60;2.55;;;14.40;99.90;;;;;;4974323;28;93428;-73
2023/03/13 09:08:22;;;;;;;3.45;2.33;;;14.40;99.90;;;;;;4973887;28;92999;-73
2023/03/13 09:10:56;;;;;;;3.60;2.78;;;14.50;99.90;;;;;;4975631;28;92515;-73
2023/03/13 09:13:24;;;;;;;6.07;2.70;;;14.60;99.90;;;;;;4975551;28;92160;-73
2023/03/13 09:16:03;;;;;;;3.83;2.85;;;14.60;99.90;;;;;;4976043;28;93316;-73
2023/03/13 09:18:31;;;;;;;4.00;2.55;;;14.80;99.90;;;;;;4978326;28;93116;-73
2023/03/13 09:20:58;;;;;;;4.15;2.10;;;14.90;99.90;;;;;;4976113;28;94938;-73
2023/03/13 09:23:25;;;;;;;4.25;2.25;;;15.10;99.90;;;;;;4977268;28;92583;-73
2023/03/13 09:25:55;;;;;;;6.13;2.53;;;15.30;99.90;;;;;;4978225;28;93190;-73
2023/03/13 09:28:24;;;;;;;3.95;2.45;;;15.40;99.90;;;;;;4993322;28;95698;-73
2023/03/13 09:30:51;;;;;;;4.22;2.28;;;15.50;99.90;;;;;;4977196;28;92749;-73
2023/03/13 09:33:19;;;;;;;6.80;2.80;;;15.60;99.90;;;;;;4978205;28;92615;-73
2023/03/13 09:35:49;;;;;;;3.63;1.88;;;15.70;99.90;;;;;;4993369;28;95929;-73
2023/03/13 09:38:18;;;;;;;6.75;2.13;;;15.80;99.90;;;;;;4978263;28;93165;-73
2023/03/13 09:40:48;;;;;;;6.18;2.50;;;15.80;99.90;;;;;;4993441;28;92465;-73
2023/03/13 09:43:37;;;;;;;6.15;2.25;;;15.80;99.90;;;;;;4991453;28;92366;-73
2023/03/13 09:46:08;;;;;;;4.53;2.35;;;15.70;99.90;;;;;;4975656;28;95483;-73
2023/03/13 09:48:39;;;;;;;6.38;2.20;;;15.60;99.90;;;;;;4976500;28;98163;-74
2023/03/13 09:51:16;;;;;;;5.00;2.28;;;15.70;99.90;;;;;;4977377;28;92431;-74
2023/03/13 09:53:56;;;;;;;4.13;2.28;;;15.70;99.90;;;;;;4976589;28;92588;-74
2023/03/13 09:56:30;;;;;;;3.50;2.30;;;15.60;99.90;;;;;;4976516;28;95763;-74
2023/03/13 09:59:08;;;;;;;5.65;2.22;;;15.40;99.90;;;;;;4977898;28;92784;-74
2023/03/13 10:01:38;;;;;;;2.65;1.58;;;15.40;99.90;;;;;;4976832;28;92418;-74
2023/03/13 10:04:08;;;;;;;6.40;2.53;;;15.30;99.90;;;;;;4976242;28;91834;-74
2023/03/13 10:06:42;;;;;;;5.18;2.30;;;15.40;99.90;;;;;;4976378;28;94365;-74
2023/03/13 10:09:29;;;;;;;3.65;2.13;;;15.50;99.90;;;;;;4977988;28;92959;-74
2023/03/13 10:12:14;;;;;;;5.47;2.40;;;15.60;99.90;;;;;;4975248;28;95332;-74
2023/03/13 10:14:45;;;;;;;4.80;1.92;;;15.70;99.90;;;;;;4960045;28;92547;-74
2023/03/13 10:17:34;;;;;;;4.68;1.60;;;15.70;99.90;;;;;;4977837;28;93285;-74
2023/03/13 10:20:08;;;;;;;6.18;2.33;;;16.00;99.90;;;;;;4977529;28;92506;-74
2023/03/13 10:22:36;;;;;;;3.90;1.63;;;16.20;99.90;;;;;;4976292;28;92625;-74
2023/03/13 10:25:23;;;;;;;4.53;1.77;;;16.20;99.90;;;;;;4977523;28;92474;-74
2023/03/13 10:27:52;;;;;;;5.65;2.33;;;16.30;99.90;;;;;;4991330;28;93329;-74
2023/03/13 10:30:27;;;;;;;7.13;2.22;;;16.30;99.90;;;;;;4976253;28;95724;-74
2023/03/13 10:33:16;;;;;;;7.47;1.92;;;16.40;99.90;;;;;;4977587;28;92443;-74
2023/03/13 10:35:44;;;;;;;8.18;2.03;;;16.50;99.90;;;;;;4977707;28;92852;-74
2023/03/13 10:38:17;;;;;;;9.35;2.47;;;16.60;99.90;;;;;;4974722;28;98062;-74
2023/03/13 10:40:59;;;;;;;5.22;2.10;;;16.70;99.90;;;;;;4977090;28;95568;-74
2023/03/13 10:43:28;;;;;;;6.38;1.90;;;16.80;99.90;;;;;;4976340;28;92407;-74
2023/03/13 10:45:55;;;;;;;7.38;2.08;;;16.80;99.90;;;;;;4975635;28;92463;-74
2023/03/13 10:48:25;;;;;;;7.72;2.33;;;16.80;99.90;;;;;;4975697;28;95737;-74
2023/03/13 10:50:57;;;;;;;11.30;2.55;;;16.90;99.90;;;;;;4975883;28;95772;-74
2023/03/13 10:53:29;;;;;;;6.18;2.17;;;16.90;99.90;;;;;;4977239;28;92385;-75
2023/03/13 10:56:12;;;;;;;7.93;2.35;;;17.00;99.90;;;;;;4975856;28;91846;-74
2023/03/13 10:58:42;;;;;;;6.75;2.35;;;17.00;99.90;;;;;;4976907;28;93035;-74
2023/03/13 11:01:16;;;;;;;9.32;2.10;;;17.20;99.90;;;;;;4975635;28;93936;-74
2023/03/13 11:03:45;;;;;;;8.73;2.75;;;17.40;99.90;;;;;;4974985;28;95334;-74
2023/03/13 11:06:39;;;;;;;7.63;2.10;;;17.40;99.90;;;;;;4977097;28;92896;-74
2023/03/13 11:09:10;;;;;;;8.32;2.42;;;17.40;99.90;;;;;;4972382;28;95941;-74
2023/03/13 11:11:52;;;;;;;8.50;2.40;;;17.50;99.90;;;;;;4975264;28;93007;-75
2023/03/13 11:14:24;;;;;;;9.95;2.17;;;17.60;99.90;;;;;;4975107;28;92677;-75
2023/03/13 11:16:59;;;;;;;8.27;2.60;;;17.60;99.90;;;;;;4976697;28;92381;-75
2023/03/13 11:19:41;;;;;;;6.95;2.58;;;17.70;99.90;;;;;;4992045;28;93342;-75
2023/03/13 11:22:23;;;;;;;7.80;2.17;;;17.80;99.90;;;;;;4976910;28;93022;-75
2023/03/13 11:24:59;;;;;;;8.60;1.92;;;17.90;99.90;;;;;;4976860;28;92451;-75
2023/03/13 11:27:34;;;;;;;4.82;1.73;;;18.00;99.90;;;;;;4975183;28;92540;-75
2023/03/13 11:30:07;;;;;;;5.68;2.15;;;18.00;99.90;;;;;;4973704;28;98188;-75
2023/03/13 11:32:40;;;;;;;5.37;2.00;;;18.10;99.90;;;;;;4975204;28;95653;-75
2023/03/13 11:35:45;;;;;;;5.65;2.00;;;18.00;99.90;;;;;;4976792;28;92402;-75
2023/03/13 11:38:18;;;;;;;7.60;2.20;;;18.10;99.90;;;;;;4976360;28;92758;-75
2023/03/13 11:41:20;;;;;;;6.88;2.05;;;18.30;99.90;;;;;;4974668;28;95803;-73
2023/03/13 11:44:09;;;;;;;5.85;2.13;;;18.40;99.90;;;;;;4988696;28;92593;-73
2023/03/13 11:46:54;;;;;;;5.18;1.77;;;18.30;99.90;;;;;;4976371;28;92344;-73
2023/03/13 11:49:40;;;;;;;4.70;1.67;;;18.40;99.90;;;;;;4976776;28;91630;-73
2023/03/13 11:52:33;;;;;;;4.15;2.00;;;18.40;99.90;;;;;;4975107;28;93168;-73
2023/03/13 11:55:22;;;;;;;5.90;1.40;;;18.40;99.90;;;;;;4973068;28;93006;-73
2023/03/13 11:58:08;;;;;;;5.15;1.75;;;18.30;99.90;;;;;;4974862;28;94873;-73
2023/03/13 12:00:37;;;;;;;5.45;1.50;;;18.30;99.90;;;;;;4976426;28;92489;-73
2023/03/13 12:03:44;;;;;;;4.82;1.85;;;18.20;99.90;;;;;;4975150;28;93057;-73
2023/03/13 12:06:23;;;;;;;3.72;1.25;;;18.40;99.90;;;;;;4975759;28;93033;-73
2023/03/13 12:09:17;;;;;;;4.63;1.53;;;18.50;99.90;;;;;;4974501;28;92576;-73
2023/03/13 12:11:50;;;;;;;6.55;1.52;;;18.70;99.90;;;;;;4968482;28;92534;-75
2023/03/13 12:14:50;;;;;;;3.17;1.42;;;18.80;99.90;;;;;;4974768;28;92947;-73
2023/03/13 12:17:25;;;;;;;3.42;1.70;;;19.10;99.90;;;;;;4976318;28;93005;-73
2023/03/13 12:19:56;;;;;;;3.53;1.55;;;18.90;99.90;;;;;;4974639;28;92520;-73
2023/03/13 12:22:30;;;;;;;9.18;2.10;;;18.90;99.90;;;;;;4974536;28;92461;-73
2023/03/13 12:25:04;;;;;;;2.40;1.50;;;18.90;99.80;;;;;;4973069;28;95790;-73
2023/03/13 12:27:41;;;;;;;4.50;1.70;;;19.00;99.60;;;;;;4974671;28;95345;-73
2023/03/13 12:30:19;;;;;;;5.20;1.77;;;19.00;99.40;;;;;;4975544;28;92443;-73
2023/03/13 12:33:15;;;;;;;3.75;1.80;;;19.00;99.50;;;;;;4974477;28;92528;-73
2023/03/13 12:35:53;;;;;;;4.78;1.55;;;18.90;99.50;;;;;;4970587;28;93747;-73
2023/03/13 12:38:32;;;;;;;7.53;1.60;;;18.80;99.40;;;;;;4975469;28;92920;-73
2023/03/13 12:41:20;;;;;;;5.90;1.60;;;18.80;99.70;;;;;;4975657;28;92466;-73
2023/03/13 12:43:50;;;;;;;3.60;1.73;;;18.90;99.50;;;;;;4976012;28;92959;-73
2023/03/13 12:46:37;;;;;;;4.65;1.65;;;18.80;99.30;;;;;;4974080;28;95719;-73
2023/03/13 12:49:54;;;;;;;6.28;1.85;;;18.90;99.20;;;;;;4973888;28;95649;-73
2023/03/13 12:52:44;;;;;;;5.72;1.70;;;19.00;99.20;;;;;;4976387;28;95050;-73
2023/03/13 12:55:36;;;;;;;6.00;1.90;;;18.80;99.40;;;;;;4977359;28;92498;-75
2023/03/13 12:58:38;;;;;;;3.42;1.30;;;18.80;99.70;;;;;;4979036;28;93344;-75
2023/03/13 13:01:10;;;;;;;7.72;1.90;;;18.90;99.50;;;;;;4978814;28;93026;-73
2023/03/13 13:03:50;;;;;;;4.43;1.63;;;18.80;99.40;;;;;;4993820;28;92419;-73
2023/03/13 13:06:18;;;;;;;4.00;1.50;;;19.00;99.60;;;;;;4977479;28;92529;-73
2023/03/13 13:09:21;;;;;;;4.63;1.55;;;19.00;99.90;;;;;;4977262;28;95943;-73
2023/03/13 13:11:51;;;;;;;4.47;1.57;;;19.00;99.90;;;;;;4977853;28;95502;-73
2023/03/13 13:14:18;;;;;;;4.90;1.83;;;18.80;99.90;;;;;;4989528;28;92466;-73
2023/03/13 13:16:51;;;;;;;5.32;1.90;;;18.60;99.90;;;;;;4978279;28;92484;-73
2023/03/13 13:19:24;;;;;;;6.63;2.33;;;18.60;99.90;;;;;;4975972;28;98149;-74
2023/03/13 13:22:29;;;;;;;5.20;2.00;;;18.40;99.90;;;;;;4976873;28;98038;-74
2023/03/13 13:24:59;;;;;;;7.95;1.80;;;18.30;99.90;;;;;;4977299;28;92500;-73